Here is the Quick Look data you requested

The Data originates at the National Weather Service, and is made available here by the UAlbany Department of Atmospheric and Environmental Sciences

Surface Observations

KPHL 251754Z 15004KT 10SM -RA FEW070 BKN100 OVC150 19/08 A2992 RMK AO2 RAB50
 SLP133 P0000 60000 T01890083 10194 20133 58013=
KTHV 251753Z AUTO 00000KT 10SM -RA SCT065 BKN080 OVC110 17/08 A2992 RMK AO2
 RAE03B52 SLP133 P0000 60000 T01670083 10172 20133 56006=
KLNS 251753Z 13004KT 10SM SCT075 OVC100 17/09 A2992 RMK AO2 RAB1659E10 SLP132
 P0000 60000 T01720094 10172 20133 58009=
KCXY 251756Z 12006KT 10SM OVC050 16/08 A2993 RMK AO2 SLP135 60000 T01610078
 10167 20133 56007=
KMDT 251756Z 14003KT 10SM OVC055 16/09 A2992 RMK AO2 RAB40E53 SLP132 P0000
 60000 T01560089 10167 20139 55007=
KMIV 251754Z AUTO 11007KT 10SM CLR 17/08 A2993 RMK AO2 SLP134 T01720083 10172
 20128 58008 TSNO=
KTTN 251753Z VRB05KT 10SM FEW060 BKN090 17/08 A2993 RMK AO2 SLP128 T01720083
 10172 20117 56015=
KRDG 251754Z 00000KT 10SM OVC080 18/08 A2991 RMK AO2 RAE17 SLP134 P0000 60000
 T01780078 10183 20122 58012=
KDCA 251752Z 14004KT 10SM BKN050 BKN140 OVC200 22/07 A2989 RMK AO2 SLP122
 T02220067 10228 20178 56015=
KADW 251756Z AUTO 05003KT 10SM FEW050 SCT130 BKN160 BKN200 21/08 A2988 RMK AO2
 SLP124 60000 T02080081 10208 20158 55014 $=
KAPG 251749Z 06008KT 7SM BKN080 BKN150 19/08 A2993 RMK SLPNO 58008 $=
KBWI 251754Z 09007KT 10SM FEW110 SCT160 BKN250 21/08 A2990 RMK AO2 SLP123
 T02110083 10217 20167 56014=
KDMH 251754Z AUTO 21/07 A2991 RMK AO1 SLP128 T02060072 10217 20172 56012=
KFME 251800Z AUTO 10004KT 10SM SCT050 21/07 A2992 RMK AO1=
KHGR 251753Z 03005KT 10SM FEW070 FEW085 BKN110 17/08 A2990 RMK AO2 RAE03 SLP132
 P0000 60000 T01720078 10172 20144 58012=
KMTN 251745Z 09005KT 10SM BKN160 BKN250 20/11 A2993=
KNHK 251752Z 04005KT 10SM CLR 22/13 A2987 RMK AO2 SLP115 T02170133 10217 20178
 58016=
KOXB 251753Z AUTO 07006KT 10SM CLR 15/12 A2991 RMK AO2 SLP128 T01500117 10183
 20144 58012=
KSBY 251754Z 09008KT 10SM CLR 21/10 A2988 RMK AO2 SLP121 T02110100 10228 20144
 58014=
KDOV 251756Z AUTO 10009KT 10SM BKN130 15/10 A2994 RMK AO2 SLP142 60000
 T01510103 10158 20141 57004 $=
KGED 251754Z AUTO 05009KT 10SM BKN060 17/11 A2993 RMK AO2 SLP134 T01670106
 10194 20150 56007=
KILG 251751Z 06005KT 10SM FEW080 SCT110 18/10 A2994 RMK AO2 SLP136 60000
 T01830100 10183 20139 58007=